Time;durP1;ratioP1;P1;durP2;ratioP2;P2;SDS_P1;SDS_P2;PMS_P1;PMS_P2;Temp;Humidity;BMP_temperature;BMP_pressure;BME280_temperature;BME280_humidity;BME280_pressure;Samples;Min_cycle;Max_cycle;Signal;HPM_P1;HPM_P2
2022/08/28 00:01:53;;;;;;;18.35;8.73;;;;;;;22.82;47.87;99256.47;1733177;82;21228;-74
2022/08/28 00:04:20;;;;;;;22.02;7.75;;;;;;;22.84;47.62;99261.83;1733202;82;20931;-72
2022/08/28 00:06:46;;;;;;;18.77;6.40;;;;;;;22.88;47.41;99270.97;1733569;82;21056;-70
2022/08/28 00:09:13;;;;;;;18.05;7.40;;;;;;;22.92;47.33;99265.06;1675737;85;20967;-69
2022/08/28 00:11:41;;;;;;;19.87;7.47;;;;;;;22.97;47.54;99272.27;1733120;82;21167;-70
2022/08/28 00:14:08;;;;;;;23.20;6.90;;;;;;;22.98;47.74;99282.06;1725282;82;21178;-70
2022/08/28 00:16:35;;;;;;;15.35;7.85;;;;;;;23.01;47.90;99272.61;1728229;82;21149;-71
2022/08/28 00:19:02;;;;;;;23.22;7.58;;;;;;;23.02;47.88;99261.06;1730339;82;21057;-70
2022/08/28 00:21:31;;;;;;;20.32;7.85;;;;;;;23.02;47.70;99263.81;1733246;82;21053;-73
2022/08/28 00:23:59;;;;;;;19.48;7.42;;;;;;;23.03;48.00;99261.27;1732752;82;20975;-70
2022/08/28 00:29:10;;;;;;;20.70;7.97;;;;;;;23.04;48.07;99259.56;1727132;82;21015;-71
2022/08/28 00:31:38;;;;;;;14.95;7.70;;;;;;;23.04;48.11;99262.31;1727337;83;20916;-70
2022/08/28 00:34:06;;;;;;;13.45;6.58;;;;;;;23.03;48.20;99261.27;1726741;83;21551;-70
2022/08/28 00:36:33;;;;;;;23.75;7.75;;;;;;;23.03;48.28;99266.19;1727368;83;20919;-72
2022/08/28 00:39:00;;;;;;;12.15;7.08;;;;;;;23.02;48.45;99261.06;1727373;83;21664;-72
2022/08/28 00:41:29;;;;;;;15.98;7.45;;;;;;;23.00;48.68;99267.45;1727048;83;21520;-71
2022/08/28 00:44:22;;;;;;;19.02;7.70;;;;;;;22.96;48.91;99267.34;1727147;83;20927;-72
2022/08/28 00:46:51;;;;;;;18.50;8.20;;;;;;;22.94;49.20;99259.21;1727464;83;21094;-70
2022/08/28 00:49:22;;;;;;;19.15;7.45;;;;;;;22.89;49.64;99262.98;1727178;82;21074;-73
2022/08/28 00:52:06;;;;;;;17.42;8.15;;;;;;;22.87;49.84;99259.80;1714773;81;21682;-69
2022/08/28 00:54:51;;;;;;;23.05;7.87;;;;;;;22.83;50.00;99256.11;1726595;83;21034;-71
2022/08/28 00:57:23;;;;;;;17.48;7.55;;;;;;;22.83;50.21;99260.83;1724613;83;21355;-71
2022/08/28 00:59:49;;;;;;;23.85;9.35;;;;;;;22.82;50.44;99257.84;1725652;81;21776;-69
2022/08/28 01:02:16;;;;;;;10.13;7.33;;;;;;;22.80;50.61;99255.44;1740722;81;21011;-69
2022/08/28 01:04:43;;;;;;;21.95;8.53;;;;;;;22.79;50.86;99247.54;1740870;81;21186;-68
2022/08/28 01:07:13;;;;;;;15.83;7.78;;;;;;;22.77;51.40;99248.47;1725387;83;21516;-69
2022/08/28 01:09:44;;;;;;;21.65;8.20;;;;;;;22.72;51.90;99249.50;1725957;83;20978;-68
2022/08/28 01:12:22;;;;;;;14.78;8.03;;;;;;;22.65;52.26;99238.81;1703946;83;21484;-69
2022/08/28 01:14:51;;;;;;;13.40;8.50;;;;;;;22.60;52.71;99235.72;1726958;82;21052;-74
2022/08/28 01:17:17;;;;;;;23.40;9.35;;;;;;;22.52;53.06;99231.95;1726011;83;21236;-69
2022/08/28 01:19:57;;;;;;;16.62;8.33;;;;;;;22.47;53.41;99237.66;1704324;83;21535;-76
2022/08/28 01:22:36;;;;;;;19.00;9.65;;;;;;;22.42;53.71;99232.39;1725481;83;21061;-72
2022/08/28 01:25:08;;;;;;;20.12;9.58;;;;;;;22.36;54.03;99236.47;1726328;81;21468;-69
2022/08/28 01:27:36;;;;;;;21.83;10.23;;;;;;;22.31;54.24;99232.58;1733475;81;21579;-70
2022/08/28 01:30:05;;;;;;;20.68;9.48;;;;;;;22.27;54.54;99226.74;1725055;82;21144;-73
2022/08/28 01:32:39;;;;;;;25.60;10.70;;;;;;;22.22;54.71;99223.65;1708728;82;21027;-73
2022/08/28 01:35:10;;;;;;;16.05;9.28;;;;;;;22.19;54.95;99222.97;1733493;82;21062;-69
2022/08/28 01:37:38;;;;;;;14.18;8.80;;;;;;;22.15;55.11;99224.22;1705052;83;21500;-68
2022/08/28 01:40:08;;;;;;;16.37;9.65;;;;;;;22.12;55.34;99218.03;1732868;82;21590;-71
2022/08/28 01:42:40;;;;;;;18.02;10.05;;;;;;;22.09;55.44;99219.28;1731382;82;21661;-68
2022/08/28 01:45:09;;;;;;;28.42;10.50;;;;;;;22.06;55.53;99216.63;1733047;82;21522;-69
2022/08/28 01:47:39;;;;;;;19.65;9.73;;;;;;;22.03;55.44;99206.92;1674941;85;21501;-69
2022/08/28 01:50:07;;;;;;;27.75;11.80;;;;;;;21.98;55.49;99205.77;1704288;82;21512;-69
2022/08/28 01:52:35;;;;;;;16.50;9.45;;;;;;;21.93;55.64;99204.57;1674959;85;21095;-69
2022/08/28 01:55:05;;;;;;;22.07;9.93;;;;;;;21.85;55.74;99199.42;1675873;85;21153;-69
2022/08/28 01:57:32;;;;;;;17.37;10.03;;;;;;;21.81;55.63;99194.95;1679160;84;20997;-69
2022/08/28 01:59:59;;;;;;;18.73;9.80;;;;;;;21.77;55.63;99192.66;1698339;84;21082;-69
2022/08/28 02:02:25;;;;;;;16.35;8.25;;;;;;;21.73;55.49;99191.94;1680655;84;21013;-68
2022/08/28 02:04:52;;;;;;;21.15;8.83;;;;;;;21.71;55.54;99183.84;1701370;84;21496;-70
2022/08/28 02:07:19;;;;;;;27.55;10.75;;;;;;;21.59;56.02;99184.58;1705770;84;21278;-71
2022/08/28 02:09:46;;;;;;;26.00;7.85;;;;;;;21.52;56.26;99184.89;1705231;84;21034;-69
2022/08/28 02:12:12;;;;;;;23.35;8.53;;;;;;;21.49;56.39;99184.98;1725787;82;21168;-70
2022/08/28 02:14:39;;;;;;;29.07;7.83;;;;;;;21.47;56.53;99185.09;1727893;82;21094;-72
2022/08/28 02:17:05;;;;;;;16.32;7.70;;;;;;;21.48;56.36;99188.07;1703665;84;21059;-69
2022/08/28 02:19:32;;;;;;;25.80;8.80;;;;;;;21.49;56.44;99187.72;1705846;84;22002;-74
2022/08/28 02:22:00;;;;;;;22.70;8.25;;;;;;;21.54;56.29;99182.61;1705449;82;20986;-71
2022/08/28 02:24:26;;;;;;;22.17;8.45;;;;;;;21.57;56.21;99195.64;1708100;82;21027;-71
2022/08/28 02:26:53;;;;;;;19.40;7.30;;;;;;;21.58;56.19;99196.66;1725389;81;21101;-71
2022/08/28 02:29:19;;;;;;;17.98;6.90;;;;;;;21.60;56.15;99203.17;1751978;81;21337;-69
2022/08/28 02:31:46;;;;;;;26.70;9.35;;;;;;;21.62;56.24;99209.13;1750721;81;21140;-69
2022/08/28 02:34:12;;;;;;;19.40;8.58;;;;;;;21.62;56.14;99207.19;1751827;81;21256;-72
2022/08/28 02:36:41;;;;;;;22.75;8.38;;;;;;;21.65;56.04;99206.52;1748198;81;21027;-71
2022/08/28 02:39:08;;;;;;;19.48;8.45;;;;;;;21.65;56.14;99200.23;1730571;81;21124;-69
2022/08/28 02:41:35;;;;;;;26.55;9.08;;;;;;;21.62;56.21;99197.61;1750124;81;21092;-68
2022/08/28 02:44:02;;;;;;;28.52;10.10;;;;;;;21.60;56.28;99196.33;1744626;81;21082;-69
2022/08/28 02:46:29;;;;;;;25.55;9.58;;;;;;;21.59;56.33;99198.83;1751664;81;21531;-69
2022/08/28 02:48:56;;;;;;;21.15;9.25;;;;;;;21.57;56.45;99199.19;1744093;81;22461;-69
2022/08/28 02:51:22;;;;;;;39.20;9.10;;;;;;;21.53;56.58;99200.19;1751513;80;20973;-69
2022/08/28 02:53:51;;;;;;;18.10;8.53;;;;;;;21.52;56.65;99197.21;1751964;81;20954;-70
2022/08/28 02:56:17;;;;;;;23.75;7.40;;;;;;;21.59;56.25;99209.77;1731418;82;21241;-68
2022/08/28 02:58:45;;;;;;;24.10;9.53;;;;;;;21.57;56.25;99208.77;1704140;83;21057;-70
2022/08/28 03:01:12;;;;;;;20.75;8.15;;;;;;;21.54;56.66;99214.08;1722195;82;21043;-70
2022/08/28 03:03:40;;;;;;;20.92;8.93;;;;;;;21.53;57.05;99214.67;1733573;82;20994;-69
2022/08/28 03:06:11;;;;;;;21.55;8.60;;;;;;;21.46;57.33;99218.49;1732477;82;21485;-69
2022/08/28 03:08:41;;;;;;;17.10;10.23;;;;;;;21.38;58.49;99229.51;1732915;82;21709;-71
2022/08/28 03:11:08;;;;;;;15.95;8.95;;;;;;;21.25;59.69;99234.08;1730707;82;20908;-68
2022/08/28 03:13:37;;;;;;;18.92;9.15;;;;;;;21.12;59.76;99230.43;1733367;82;21531;-69
2022/08/28 03:16:04;;;;;;;14.45;8.53;;;;;;;21.09;60.30;99230.30;1732311;82;21037;-69
2022/08/28 03:18:31;;;;;;;19.62;9.85;;;;;;;21.01;61.11;99237.40;1710495;82;21113;-70
2022/08/28 03:20:58;;;;;;;21.62;11.78;;;;;;;20.87;63.09;99236.27;1731361;82;21015;-69
2022/08/28 03:23:25;;;;;;;25.90;11.35;;;;;;;20.72;64.74;99238.17;1733405;82;21566;-71
2022/08/28 03:26:05;;;;;;;18.40;11.12;;;;;;;20.66;64.94;99254.53;1732547;82;21504;-71
2022/08/28 03:28:40;;;;;;;15.68;10.00;;;;;;;20.55;65.84;99249.17;1697649;83;21047;-69
2022/08/28 03:31:08;;;;;;;22.13;11.33;;;;;;;20.49;66.09;99266.06;1723352;83;20989;-70
2022/08/28 03:33:36;;;;;;;22.73;12.47;;;;;;;20.42;66.74;99270.67;1763195;80;21143;-71
2022/08/28 03:36:03;;;;;;;17.42;10.35;;;;;;;20.36;67.01;99274.70;1753981;80;21033;-69
2022/08/28 03:38:30;;;;;;;15.10;10.18;;;;;;;20.34;66.93;99285.13;1686410;82;21094;-68
2022/08/28 03:40:56;;;;;;;21.52;11.88;;;;;;;20.36;66.75;99289.16;1717123;83;20999;-69
2022/08/28 03:43:24;;;;;;;16.50;11.33;;;;;;;20.36;66.10;99297.91;1724333;83;21067;-69
2022/08/28 03:46:00;;;;;;;19.62;11.97;;;;;;;20.28;65.77;99302.80;1709249;83;21132;-69
2022/08/28 03:48:31;;;;;;;15.78;11.88;;;;;;;20.22;65.79;99291.80;1710614;82;21042;-71
2022/08/28 03:50:58;;;;;;;16.07;11.20;;;;;;;20.21;65.62;99298.38;1734346;82;21066;-70
2022/08/28 03:53:27;;;;;;;16.15;12.28;;;;;;;20.22;65.45;99296.70;1722640;83;21025;-70
2022/08/28 03:55:55;;;;;;;21.93;12.20;;;;;;;20.27;65.23;99304.73;1736042;82;21113;-70
2022/08/28 03:58:22;;;;;;;18.55;12.60;;;;;;;20.30;64.99;99304.63;1748451;81;21037;-71
2022/08/28 04:00:49;;;;;;;18.45;12.60;;;;;;;20.17;65.40;99302.88;1734752;82;21550;-71
2022/08/28 04:03:17;;;;;;;14.43;11.25;;;;;;;19.99;65.73;99295.27;1738345;82;20971;-70
2022/08/28 04:05:44;;;;;;;16.75;10.95;;;;;;;19.99;65.73;99295.27;1775078;80;21289;-70
2022/08/28 04:08:17;;;;;;;19.95;11.65;;;;;;;20.00;65.53;99295.49;1784886;80;21041;-69
2022/08/28 04:10:44;;;;;;;26.17;13.45;;;;;;;20.00;65.53;99295.49;1765415;80;21810;-70
2022/08/28 04:13:13;;;;;;;18.20;11.50;;;;;;;20.05;65.45;99298.06;1736731;82;20895;-69
2022/08/28 04:15:40;;;;;;;18.62;12.15;;;;;;;20.05;65.45;99298.06;1722635;83;21022;-70
2022/08/28 04:18:08;;;;;;;15.35;12.25;;;;;;;20.07;65.42;99293.66;1736008;82;20982;-71
2022/08/28 04:20:37;;;;;;;21.85;12.33;;;;;;;20.05;65.27;99283.63;1716642;83;35993;-70
2022/08/28 04:23:08;;;;;;;16.12;10.88;;;;;;;20.09;65.06;99284.03;1736907;82;21209;-69
2022/08/28 04:25:35;;;;;;;16.70;12.50;;;;;;;20.13;64.91;99289.64;1751534;81;21011;-70
2022/08/28 04:28:03;;;;;;;17.92;12.75;;;;;;;20.15;64.79;99287.38;1710753;81;21050;-71
2022/08/28 04:30:29;;;;;;;25.20;12.47;;;;;;;20.22;64.63;99282.23;1734345;81;21078;-70
2022/08/28 04:32:56;;;;;;;23.45;11.80;;;;;;;20.22;64.63;99282.23;1737684;82;21023;-69
2022/08/28 04:35:26;;;;;;;22.60;12.43;;;;;;;20.25;64.40;99282.39;1737693;82;21694;-70
2022/08/28 04:37:52;;;;;;;22.15;12.53;;;;;;;20.31;64.00;99277.03;1737725;82;21421;-70
2022/08/28 04:40:19;;;;;;;21.97;11.78;;;;;;;20.31;64.00;99277.03;1737561;81;21073;-71
2022/08/28 04:42:46;;;;;;;18.17;13.08;;;;;;;20.35;63.93;99274.45;1697623;83;21054;-79
2022/08/28 04:45:13;;;;;;;28.80;12.60;;;;;;;20.38;63.83;99277.92;1725476;82;20963;-68
2022/08/28 04:47:39;;;;;;;25.97;13.43;;;;;;;20.41;63.72;99275.33;1693590;84;21951;-71
2022/08/28 04:50:08;;;;;;;22.32;12.00;;;;;;;20.45;63.53;99273.55;1700815;83;20971;-70
2022/08/28 04:52:34;;;;;;;18.92;11.75;;;;;;;20.48;63.36;99272.08;1721636;83;21070;-70
2022/08/28 04:55:04;;;;;;;21.42;11.10;;;;;;;20.50;63.32;99272.58;1725065;83;21572;-70
2022/08/28 04:57:31;;;;;;;29.48;19.37;;;;;;;20.52;63.10;99266.23;1753982;81;21014;-70
2022/08/28 04:59:57;;;;;;;23.50;14.33;;;;;;;20.54;62.76;99268.63;1725215;83;21244;-69
2022/08/28 05:02:24;;;;;;;21.02;13.15;;;;;;;20.54;62.76;99268.63;1751164;80;21539;-71
2022/08/28 05:04:50;;;;;;;33.08;12.47;;;;;;;20.54;62.89;99268.63;1725170;83;21050;-70
2022/08/28 05:07:17;;;;;;;18.70;11.38;;;;;;;20.53;62.79;99271.91;1738285;81;20990;-69
2022/08/28 05:09:44;;;;;;;24.92;11.40;;;;;;;20.54;62.45;99270.79;1738132;82;21006;-69
2022/08/28 05:12:15;;;;;;;15.18;9.65;;;;;;;20.56;62.18;99269.11;1735550;81;21114;-70
2022/08/28 05:14:39;;;;;;;26.37;11.85;;;;;;;20.56;62.01;99274.02;1734775;82;20919;-69
2022/08/28 05:17:08;;;;;;;21.55;10.68;;;;;;;20.61;61.92;99262.11;1747366;82;21022;-70
2022/08/28 05:19:36;;;;;;;27.87;10.48;;;;;;;20.61;61.45;99264.84;1747150;80;21098;-69
2022/08/28 05:22:03;;;;;;;18.57;10.95;;;;;;;20.64;61.33;99264.17;1737196;82;21022;-69
2022/08/28 05:24:29;;;;;;;23.18;10.70;;;;;;;20.64;61.33;99264.17;1692746;84;22412;-69
2022/08/28 05:26:56;;;;;;;22.62;12.05;;;;;;;20.67;61.02;99262.17;1738064;82;21042;-72
2022/08/28 05:29:22;;;;;;;18.32;12.18;;;;;;;20.68;61.09;99259.09;1740394;81;21066;-69
2022/08/28 05:31:49;;;;;;;17.95;10.20;;;;;;;20.73;60.73;99258.91;1724881;83;21030;-70
2022/08/28 05:34:16;;;;;;;18.05;9.80;;;;;;;20.76;60.41;99265.67;1722501;83;21582;-70
2022/08/28 05:36:42;;;;;;;18.02;8.85;;;;;;;20.76;60.03;99259.65;1722492;83;21143;-69
2022/08/28 05:39:10;;;;;;;24.43;11.15;;;;;;;20.78;60.20;99260.10;1726133;83;20963;-69
2022/08/28 05:41:39;;;;;;;25.68;9.58;;;;;;;20.82;59.97;99266.52;1717951;83;20950;-71
2022/08/28 05:44:07;;;;;;;18.57;11.12;;;;;;;20.87;59.90;99270.44;1701753;83;20990;-70
2022/08/28 05:46:36;;;;;;;21.35;9.05;;;;;;;20.93;60.02;99272.98;1722771;83;21065;-68
2022/08/28 05:49:03;;;;;;;19.35;10.43;;;;;;;20.95;60.23;99275.65;1725672;83;21145;-70
2022/08/28 05:51:30;;;;;;;20.45;10.35;;;;;;;20.97;60.21;99283.50;1753530;81;20989;-69
2022/08/28 05:53:57;;;;;;;22.75;8.30;;;;;;;20.98;60.32;99278.28;1725605;83;21030;-70
2022/08/28 05:56:31;;;;;;;29.87;11.43;;;;;;;21.01;60.57;99281.71;1713841;82;21113;-72
2022/08/28 05:59:01;;;;;;;20.43;8.68;;;;;;;21.02;60.41;99283.32;1738351;82;21034;-70
2022/08/28 06:01:30;;;;;;;25.72;8.93;;;;;;;21.03;60.20;99283.00;1713246;83;21159;-71
2022/08/28 06:04:13;;;;;;;11.20;7.92;;;;;;;21.06;59.75;99281.53;1725448;83;21085;-69
2022/08/28 06:06:41;;;;;;;15.83;8.15;;;;;;;21.07;59.77;99284.50;1722167;83;21028;-70
2022/08/28 06:09:12;;;;;;;27.02;10.30;;;;;;;21.11;59.36;99284.08;1725216;83;20998;-71
2022/08/28 06:11:40;;;;;;;20.30;9.65;;;;;;;21.14;59.21;99286.20;1741469;80;21218;-71
2022/08/28 06:14:09;;;;;;;20.35;8.45;;;;;;;21.13;59.49;99283.20;1729166;83;21107;-74
2022/08/28 06:16:38;;;;;;;27.80;10.50;;;;;;;21.12;59.53;99291.97;1752438;81;21163;-70
2022/08/28 06:19:08;;;;;;;19.82;9.53;;;;;;;21.12;59.65;99293.89;1753847;81;21034;-71
2022/08/28 06:21:39;;;;;;;24.23;8.80;;;;;;;21.13;59.80;99294.14;1726756;80;21550;-70
2022/08/28 06:24:07;;;;;;;20.15;7.67;;;;;;;21.13;60.00;99300.97;1723849;83;21069;-68
2022/08/28 06:26:33;;;;;;;20.88;8.48;;;;;;;21.17;59.89;99298.65;1738252;82;21132;-69
2022/08/28 06:29:01;;;;;;;23.12;8.08;;;;;;;21.25;59.73;99307.94;1733596;82;20911;-75
2022/08/28 06:31:29;;;;;;;25.25;11.43;;;;;;;21.29;59.75;99307.53;1702658;84;21058;-69
2022/08/28 06:33:57;;;;;;;20.77;11.10;;;;;;;21.33;59.73;99305.73;1746826;82;21035;-67
2022/08/28 06:36:26;;;;;;;21.95;10.28;;;;;;;21.36;59.69;99311.91;1735827;82;21046;-69
2022/08/28 06:38:54;;;;;;;19.85;9.53;;;;;;;21.39;59.93;99317.30;1718256;83;21810;-68
2022/08/28 06:41:20;;;;;;;22.42;10.20;;;;;;;21.43;60.40;99319.05;1748504;82;21633;-68
2022/08/28 06:43:47;;;;;;;17.52;9.58;;;;;;;21.47;60.60;99310.97;1734906;82;21489;-68
2022/08/28 06:46:14;;;;;;;23.87;10.03;;;;;;;21.52;60.72;99313.52;1748770;82;21112;-70
2022/08/28 06:48:41;;;;;;;16.15;8.60;;;;;;;21.57;60.53;99317.43;1749436;82;20993;-74
2022/08/28 06:51:10;;;;;;;17.60;8.48;;;;;;;21.60;60.04;99315.39;1704950;84;21747;-68
2022/08/28 06:53:38;;;;;;;25.68;8.90;;;;;;;21.65;59.93;99311.09;1749472;82;20979;-68
2022/08/28 06:56:10;;;;;;;22.55;8.45;;;;;;;21.70;59.79;99312.27;1734864;82;21074;-71
2022/08/28 06:58:42;;;;;;;17.17;8.65;;;;;;;21.73;59.65;99309.66;1726960;82;21550;-68
2022/08/28 07:01:21;;;;;;;18.77;10.00;;;;;;;21.79;59.40;99310.27;1747437;80;20891;-70
2022/08/28 07:03:49;;;;;;;17.40;9.18;;;;;;;21.84;59.22;99307.33;1749430;82;21124;-69
2022/08/28 07:06:16;;;;;;;21.15;9.05;;;;;;;21.87;59.25;99298.44;1749395;82;21062;-71
2022/08/28 07:08:44;;;;;;;13.48;8.85;;;;;;;21.91;59.13;99306.25;1736274;82;21037;-73
2022/08/28 07:11:24;;;;;;;27.58;12.30;;;;;;;21.97;59.01;99310.39;1717694;83;21097;-81
2022/08/28 07:13:54;;;;;;;14.15;10.55;;;;;;;22.04;58.92;99305.76;1749720;82;21570;-70
2022/08/28 07:16:25;;;;;;;16.60;9.78;;;;;;;22.10;58.64;99305.23;1713331;82;21056;-69
2022/08/28 07:18:52;;;;;;;17.40;8.83;;;;;;;22.16;58.63;99303.06;1736704;82;20998;-68
2022/08/28 07:21:19;;;;;;;16.97;9.13;;;;;;;22.24;58.64;99305.52;1704995;84;21030;-70
2022/08/28 07:23:47;;;;;;;19.42;9.38;;;;;;;22.27;58.48;99300.16;1717764;83;21057;-71
2022/08/28 07:26:18;;;;;;;20.57;8.65;;;;;;;22.33;58.55;99300.19;1749414;81;21053;-70
2022/08/28 07:28:44;;;;;;;25.27;9.45;;;;;;;22.33;58.48;99300.19;1745767;80;21142;-71
2022/08/28 07:31:18;;;;;;;15.30;8.50;;;;;;;22.35;58.74;99303.97;1741166;81;20969;-71
2022/08/28 07:33:44;;;;;;;20.55;9.43;;;;;;;22.38;58.66;99297.80;1740917;81;20990;-70
2022/08/28 07:36:14;;;;;;;23.95;9.10;;;;;;;22.44;58.49;99298.64;1741619;82;20998;-70
2022/08/28 07:38:41;;;;;;;21.35;8.25;;;;;;;22.54;58.35;99296.81;1710980;83;21070;-71
2022/08/28 07:41:20;;;;;;;17.42;9.70;;;;;;;22.64;58.22;99294.20;1707171;83;21994;-71
2022/08/28 07:46:33;;;;;;;20.88;9.60;;;;;;;22.83;57.88;99300.59;1733629;82;20895;-69
2022/08/28 07:49:00;;;;;;;14.23;10.82;;;;;;;22.97;57.54;99295.58;1723094;83;21080;-69
2022/08/28 07:51:27;;;;;;;23.80;9.58;;;;;;;23.06;57.45;99294.09;1738387;81;21018;-70
2022/08/28 07:53:58;;;;;;;24.07;9.08;;;;;;;23.13;57.20;99295.68;1741667;82;21131;-68
2022/08/28 07:56:28;;;;;;;23.35;9.63;;;;;;;23.22;56.90;99296.37;1694034;84;21099;-72
2022/08/28 07:58:57;;;;;;;20.90;8.53;;;;;;;23.33;56.81;99294.77;1721940;83;21016;-70
2022/08/28 08:01:27;;;;;;;16.05;8.63;;;;;;;23.44;56.27;99293.17;1733077;81;21465;-69
2022/08/28 08:03:54;;;;;;;20.52;10.48;;;;;;;23.57;56.03;99285.17;1720622;82;21491;-72
2022/08/28 08:06:21;;;;;;;18.65;11.45;;;;;;;23.68;55.56;99284.94;1714332;83;21183;-70
2022/08/28 08:08:47;;;;;;;20.88;9.08;;;;;;;23.76;55.32;99288.67;1722838;83;20947;-70
2022/08/28 08:11:17;;;;;;;21.48;8.15;;;;;;;23.81;55.09;99287.87;1721756;83;20982;-74
2022/08/28 08:13:45;;;;;;;16.23;8.25;;;;;;;23.87;54.79;99291.98;1723189;83;21078;-72
2022/08/28 08:16:16;;;;;;;23.75;9.05;;;;;;;23.97;54.49;99292.06;1694038;84;21495;-70
2022/08/28 08:18:42;;;;;;;16.02;8.45;;;;;;;24.04;54.38;99292.83;1694091;84;21172;-69
2022/08/28 08:21:11;;;;;;;16.35;10.10;;;;;;;24.10;54.04;99292.81;1703964;83;21034;-70
2022/08/28 08:23:39;;;;;;;17.12;9.40;;;;;;;24.15;53.61;99294.75;1723061;81;21075;-69
2022/08/28 08:26:09;;;;;;;16.02;9.48;;;;;;;24.25;53.60;99297.59;1722693;83;20963;-69
2022/08/28 08:28:36;;;;;;;24.05;9.70;;;;;;;24.36;53.52;99297.91;1744857;81;21579;-69
2022/08/28 08:31:12;;;;;;;22.60;9.55;;;;;;;24.43;53.37;99298.08;1751656;81;21248;-69
2022/08/28 08:33:43;;;;;;;25.77;8.65;;;;;;;24.46;53.55;99295.42;1730904;81;21031;-69
2022/08/28 08:36:12;;;;;;;17.90;11.18;;;;;;;24.47;53.75;99292.10;1736468;82;21095;-72
2022/08/28 08:38:38;;;;;;;30.70;11.25;;;;;;;24.51;53.61;99295.77;1738501;82;21017;-70
2022/08/28 08:41:26;;;;;;;23.50;10.30;;;;;;;24.49;53.45;99289.81;1714833;83;21789;-70
2022/08/28 08:43:59;;;;;;;18.98;9.08;;;;;;;24.47;53.11;99290.73;1715352;83;21160;-70
2022/08/28 08:46:31;;;;;;;;;;;;;;;24.45;53.45;99288.92;1704497;83;21512;-70
2022/08/28 08:49:04;;;;;;;20.85;9.45;;;;;;;24.51;54.04;99288.30;1737614;82;20425;-84
2022/08/28 08:51:42;;;;;;;25.10;9.73;;;;;;;24.50;54.14;99285.34;1735943;82;22294;-69
2022/08/28 08:54:15;;;;;;;21.82;10.03;;;;;;;24.53;54.04;99287.95;1708265;84;21126;-73
2022/08/28 08:56:42;;;;;;;17.00;9.00;;;;;;;24.56;54.00;99281.16;1736128;82;21144;-70
2022/08/28 08:59:18;;;;;;;21.95;10.40;;;;;;;24.61;53.60;99280.91;1737726;82;21512;-69
2022/08/28 09:02:08;;;;;;;21.70;9.58;;;;;;;24.63;52.71;99284.12;1733729;82;21041;-70
2022/08/28 09:04:45;;;;;;;15.00;8.83;;;;;;;24.67;52.61;99282.25;1735948;82;21634;-71
2022/08/28 09:07:18;;;;;;;14.78;8.58;;;;;;;24.79;52.78;99287.47;1736692;82;21140;-70
2022/08/28 09:09:54;;;;;;;16.05;9.95;;;;;;;24.95;52.57;99285.53;1737202;82;21241;-69
2022/08/28 09:12:26;;;;;;;24.65;10.00;;;;;;;25.07;51.83;99279.38;1737001;82;21101;-70
2022/08/28 09:15:13;;;;;;;19.65;8.40;;;;;;;25.20;51.52;99278.69;1738022;82;20983;-70
2022/08/28 09:17:49;;;;;;;22.50;9.90;;;;;;;25.31;49.80;99277.00;1731191;81;21531;-70
2022/08/28 09:20:19;;;;;;;14.43;8.68;;;;;;;25.38;48.95;99273.02;1730576;82;21605;-70
2022/08/28 09:22:47;;;;;;;17.35;8.05;;;;;;;25.59;47.94;99274.12;1734882;82;21198;-68
2022/08/28 09:25:57;;;;;;;25.15;9.13;;;;;;;25.70;46.61;99283.43;1734483;82;20928;-70
2022/08/28 09:28:35;;;;;;;23.10;8.73;;;;;;;25.81;46.39;99272.03;1702913;84;21223;-70
2022/08/28 09:31:07;;;;;;;18.70;7.47;;;;;;;25.97;46.31;99274.16;1703328;84;21152;-71
2022/08/28 09:33:44;;;;;;;22.32;9.85;;;;;;;26.07;46.22;99274.16;1718647;82;21046;-69
2022/08/28 09:36:32;;;;;;;20.68;9.73;;;;;;;26.17;45.57;99269.45;1733297;82;21242;-68
2022/08/28 09:39:16;;;;;;;17.73;8.55;;;;;;;26.28;45.17;99268.31;1734899;82;21011;-69
2022/08/28 09:45:19;;;;;;;13.15;6.67;;;;;;;26.46;43.32;99268.87;1730468;81;21027;-75
2022/08/28 09:47:55;;;;;;;13.10;6.85;;;;;;;26.57;43.01;99271.03;1736801;82;21956;-69
2022/08/28 09:50:37;;;;;;;18.70;6.87;;;;;;;26.63;43.19;99270.34;1734116;82;22133;-68
2022/08/28 09:53:15;;;;;;;15.83;6.40;;;;;;;26.69;43.29;99265.32;1737632;82;20987;-69
2022/08/28 09:56:05;;;;;;;13.93;6.87;;;;;;;26.75;43.22;99272.14;1737642;82;21538;-68
2022/08/28 09:58:39;;;;;;;17.12;7.35;;;;;;;26.80;42.77;99269.87;1708437;84;21039;-68
2022/08/28 10:01:30;;;;;;;18.87;6.97;;;;;;;26.88;42.66;99260.57;1727533;82;21050;-70
2022/08/28 10:04:23;;;;;;;18.27;7.47;;;;;;;26.92;42.49;99262.58;1737875;82;21790;-69
2022/08/28 10:07:07;;;;;;;13.75;6.67;;;;;;;27.00;41.71;99262.35;1735543;82;21539;-70
2022/08/28 10:09:59;;;;;;;23.02;7.58;;;;;;;27.07;41.16;99266.59;1705988;82;21025;-70
2022/08/28 10:12:52;;;;;;;14.03;6.45;;;;;;;27.16;40.19;99256.08;1737718;82;21583;-68
2022/08/28 10:16:05;;;;;;;10.18;6.00;;;;;;;27.22;40.11;99253.81;1724782;82;21081;-71
2022/08/28 10:18:46;;;;;;;13.00;7.30;;;;;;;27.36;38.86;99259.55;1733444;82;21146;-67
2022/08/28 10:21:45;;;;;;;16.15;6.17;;;;;;;27.52;39.16;99252.52;1737105;81;21002;-68
2022/08/28 10:24:32;;;;;;;9.40;4.42;;;;;;;27.67;38.97;99257.84;1737814;82;21029;-69
2022/08/28 10:27:36;;;;;;;16.07;4.62;;;;;;;27.89;34.67;99260.89;1726760;82;21019;-70
2022/08/28 10:30:14;;;;;;;;;;;;;;;28.00;32.90;99265.39;1733533;81;21009;-67
2022/08/28 10:32:58;;;;;;;10.32;3.85;;;;;;;27.93;33.27;99259.77;1727436;83;21797;-68
2022/08/28 10:35:33;;;;;;;17.02;5.08;;;;;;;27.84;33.74;99257.88;1726028;82;21054;-70
2022/08/28 10:38:11;;;;;;;7.28;4.45;;;;;;;27.81;33.98;99254.49;1727229;82;21038;-70
2022/08/28 10:40:42;;;;;;;13.95;4.45;;;;;;;27.82;33.75;99274.64;1725348;82;20987;-68
2022/08/28 10:43:24;;;;;;;11.08;4.67;;;;;;;27.81;33.69;99260.02;1725556;83;21054;-71
2022/08/28 10:45:50;;;;;;;8.73;4.83;;;;;;;27.86;33.91;99247.25;1726695;81;20975;-69
2022/08/28 10:48:27;;;;;;;7.92;4.55;;;;;;;27.89;33.85;99252.02;1727199;83;20995;-68
2022/08/28 10:51:08;;;;;;;10.40;5.40;;;;;;;27.95;33.41;99251.11;1727380;83;21027;-68
2022/08/28 10:53:45;;;;;;;10.25;5.30;;;;;;;27.98;33.04;99248.38;1703061;83;21570;-69
2022/08/28 10:56:16;;;;;;;10.20;4.58;;;;;;;27.98;33.39;99254.48;1726701;83;21094;-68
2022/08/28 10:58:43;;;;;;;8.28;4.20;;;;;;;28.07;33.82;99261.91;1727601;83;21229;-69
2022/08/28 11:01:20;;;;;;;16.07;4.83;;;;;;;28.16;34.03;99268.77;1727098;83;20998;-69
2022/08/28 11:03:49;;;;;;;13.90;5.12;;;;;;;28.24;34.12;99264.13;1720338;83;21291;-71
2022/08/28 11:06:40;;;;;;;9.38;5.45;;;;;;;28.26;34.15;99268.67;1724761;83;21030;-69
2022/08/28 11:09:26;;;;;;;10.60;5.00;;;;;;;28.35;33.63;99287.73;1717984;82;23288;-69
2022/08/28 11:12:09;;;;;;;17.12;5.58;;;;;;;28.44;33.60;99268.28;1728009;82;21197;-70
2022/08/28 11:14:41;;;;;;;9.05;5.30;;;;;;;28.52;33.84;99275.50;1723790;83;20995;-69
2022/08/28 11:17:11;;;;;;;10.98;5.87;;;;;;;28.58;33.58;99255.97;1726962;82;21627;-70
2022/08/28 11:20:27;;;;;;;17.75;5.37;;;;;;;28.54;33.54;99277.86;1705823;83;21044;-72
2022/08/28 11:23:14;;;;;;;17.50;5.87;;;;;;;28.48;33.53;99271.11;1716925;83;21037;-69
2022/08/28 11:25:53;;;;;;;11.75;6.03;;;;;;;28.41;34.14;99274.58;1725343;83;22037;-71
2022/08/28 11:28:35;;;;;;;20.82;6.30;;;;;;;28.32;34.40;99269.14;1725877;83;20954;-69
2022/08/28 11:31:10;;;;;;;10.88;5.65;;;;;;;28.13;35.33;99283.36;1734501;82;21066;-69
2022/08/28 11:33:49;;;;;;;14.28;5.67;;;;;;;27.96;35.79;99278.35;1736474;82;21037;-70
2022/08/28 11:36:26;;;;;;;11.20;5.72;;;;;;;27.94;36.60;99285.45;1736489;82;21187;-71
2022/08/28 11:39:01;;;;;;;9.95;5.62;;;;;;;27.83;36.98;99281.16;1728324;81;21109;-72
2022/08/28 11:41:33;;;;;;;11.75;5.33;;;;;;;27.69;37.17;99280.96;1735046;82;20962;-76
2022/08/28 11:44:27;;;;;;;15.50;6.53;;;;;;;27.67;37.21;99277.80;1713476;83;21062;-70
2022/08/28 11:46:55;;;;;;;18.12;7.10;;;;;;;27.64;37.62;99288.99;1715306;83;20985;-71
2022/08/28 11:49:38;;;;;;;9.83;6.28;;;;;;;27.61;38.04;99287.57;1725067;81;21046;-69
2022/08/28 11:52:24;;;;;;;;;;;;;;;27.53;39.40;99281.73;1727689;83;22117;-71
2022/08/28 11:55:14;;;;;;;12.47;6.00;;;;;;;27.45;39.79;99279.41;1736721;82;20488;-69